sensor_id;sensor_type;location;lat;lon;timestamp;temperature;humidity
28837;DHT22;50669;50.982;11.022;2023-07-09T00:00:17;25.80;76.90
28837;DHT22;50669;50.982;11.022;2023-07-09T00:02:44;25.80;76.90
28837;DHT22;50669;50.982;11.022;2023-07-09T00:05:15;25.80;77.70
28837;DHT22;50669;50.982;11.022;2023-07-09T00:07:43;25.80;77.00
28837;DHT22;50669;50.982;11.022;2023-07-09T00:10:23;25.80;77.00
28837;DHT22;50669;50.982;11.022;2023-07-09T00:12:48;25.80;77.00
28837;DHT22;50669;50.982;11.022;2023-07-09T00:15:15;25.80;76.90
28837;DHT22;50669;50.982;11.022;2023-07-09T00:17:41;25.80;77.00
28837;DHT22;50669;50.982;11.022;2023-07-09T00:20:15;25.80;77.00
28837;DHT22;50669;50.982;11.022;2023-07-09T00:22:46;25.80;77.00
28837;DHT22;50669;50.982;11.022;2023-07-09T00:25:19;25.80;77.00
28837;DHT22;50669;50.982;11.022;2023-07-09T00:27:47;25.80;77.00
28837;DHT22;50669;50.982;11.022;2023-07-09T00:30:22;25.80;77.00
28837;DHT22;50669;50.982;11.022;2023-07-09T00:32:51;25.80;77.00
28837;DHT22;50669;50.982;11.022;2023-07-09T00:35:22;25.80;76.90
28837;DHT22;50669;50.982;11.022;2023-07-09T00:37:51;25.80;77.00
28837;DHT22;50669;50.982;11.022;2023-07-09T00:40:19;25.80;77.00
28837;DHT22;50669;50.982;11.022;2023-07-09T00:42:53;25.80;77.00
28837;DHT22;50669;50.982;11.022;2023-07-09T00:45:24;25.80;77.00
28837;DHT22;50669;50.982;11.022;2023-07-09T00:50:35;25.80;77.10
28837;DHT22;50669;50.982;11.022;2023-07-09T00:53:08;25.80;77.80
28837;DHT22;50669;50.982;11.022;2023-07-09T00:55:38;25.80;77.10
28837;DHT22;50669;50.982;11.022;2023-07-09T00:58:10;25.70;76.90
28837;DHT22;50669;50.982;11.022;2023-07-09T01:00:41;25.70;77.00
28837;DHT22;50669;50.982;11.022;2023-07-09T01:03:27;25.70;77.00
28837;DHT22;50669;50.982;11.022;2023-07-09T01:05:59;25.70;77.00
28837;DHT22;50669;50.982;11.022;2023-07-09T01:08:25;25.70;77.00
28837;DHT22;50669;50.982;11.022;2023-07-09T01:10:52;25.70;77.00
28837;DHT22;50669;50.982;11.022;2023-07-09T01:13:18;25.70;77.00
28837;DHT22;50669;50.982;11.022;2023-07-09T01:15:48;25.70;77.00
28837;DHT22;50669;50.982;11.022;2023-07-09T01:18:16;25.70;77.10
28837;DHT22;50669;50.982;11.022;2023-07-09T01:20:42;25.70;77.10
28837;DHT22;50669;50.982;11.022;2023-07-09T01:23:11;25.70;77.10
28837;DHT22;50669;50.982;11.022;2023-07-09T01:25:45;25.70;77.10
28837;DHT22;50669;50.982;11.022;2023-07-09T01:28:12;25.70;77.10
28837;DHT22;50669;50.982;11.022;2023-07-09T01:30:40;25.70;77.10
28837;DHT22;50669;50.982;11.022;2023-07-09T01:33:08;25.70;77.10
28837;DHT22;50669;50.982;11.022;2023-07-09T01:35:37;25.70;77.10
28837;DHT22;50669;50.982;11.022;2023-07-09T01:38:06;25.70;77.10
28837;DHT22;50669;50.982;11.022;2023-07-09T01:40:33;25.60;77.00
28837;DHT22;50669;50.982;11.022;2023-07-09T01:42:59;25.70;77.10
28837;DHT22;50669;50.982;11.022;2023-07-09T01:45:31;25.70;77.10
28837;DHT22;50669;50.982;11.022;2023-07-09T01:47:58;25.70;77.10
28837;DHT22;50669;50.982;11.022;2023-07-09T01:50:26;25.60;77.00
28837;DHT22;50669;50.982;11.022;2023-07-09T01:52:52;25.70;77.10
28837;DHT22;50669;50.982;11.022;2023-07-09T01:55:21;25.70;77.10
28837;DHT22;50669;50.982;11.022;2023-07-09T01:57:49;25.60;77.10
28837;DHT22;50669;50.982;11.022;2023-07-09T02:00:17;25.60;77.10
28837;DHT22;50669;50.982;11.022;2023-07-09T02:02:44;25.60;77.10
28837;DHT22;50669;50.982;11.022;2023-07-09T02:05:20;25.70;77.20
28837;DHT22;50669;50.982;11.022;2023-07-09T02:07:46;25.60;77.10
28837;DHT22;50669;50.982;11.022;2023-07-09T02:10:15;25.60;77.10
28837;DHT22;50669;50.982;11.022;2023-07-09T02:12:41;25.60;77.10
28837;DHT22;50669;50.982;11.022;2023-07-09T02:15:10;25.60;77.10
28837;DHT22;50669;50.982;11.022;2023-07-09T02:17:39;25.70;77.20
28837;DHT22;50669;50.982;11.022;2023-07-09T02:20:05;25.60;77.10
28837;DHT22;50669;50.982;11.022;2023-07-09T02:22:35;25.60;77.10
28837;DHT22;50669;50.982;11.022;2023-07-09T02:25:00;25.60;77.10
28837;DHT22;50669;50.982;11.022;2023-07-09T02:27:26;25.60;77.10
28837;DHT22;50669;50.982;11.022;2023-07-09T02:29:53;25.60;77.10
28837;DHT22;50669;50.982;11.022;2023-07-09T02:32:25;25.60;77.10
28837;DHT22;50669;50.982;11.022;2023-07-09T02:34:54;25.60;77.10
28837;DHT22;50669;50.982;11.022;2023-07-09T02:37:23;25.60;77.00
28837;DHT22;50669;50.982;11.022;2023-07-09T02:39:52;25.60;77.00
28837;DHT22;50669;50.982;11.022;2023-07-09T02:42:19;25.60;77.00
28837;DHT22;50669;50.982;11.022;2023-07-09T02:44:46;25.60;77.00
28837;DHT22;50669;50.982;11.022;2023-07-09T02:47:12;25.60;77.00
28837;DHT22;50669;50.982;11.022;2023-07-09T02:49:40;25.60;77.00
28837;DHT22;50669;50.982;11.022;2023-07-09T02:52:07;25.60;77.00
28837;DHT22;50669;50.982;11.022;2023-07-09T02:54:33;25.60;77.00
28837;DHT22;50669;50.982;11.022;2023-07-09T02:56:58;25.60;77.00
28837;DHT22;50669;50.982;11.022;2023-07-09T02:59:29;25.50;76.90
28837;DHT22;50669;50.982;11.022;2023-07-09T03:01:58;25.60;77.00
28837;DHT22;50669;50.982;11.022;2023-07-09T03:04:24;25.50;77.00
28837;DHT22;50669;50.982;11.022;2023-07-09T03:06:52;25.50;77.00
28837;DHT22;50669;50.982;11.022;2023-07-09T03:09:19;25.50;77.00
28837;DHT22;50669;50.982;11.022;2023-07-09T03:11:45;25.50;77.00
28837;DHT22;50669;50.982;11.022;2023-07-09T03:14:14;25.50;77.00
28837;DHT22;50669;50.982;11.022;2023-07-09T03:16:40;25.50;77.10
28837;DHT22;50669;50.982;11.022;2023-07-09T03:19:08;25.50;77.00
28837;DHT22;50669;50.982;11.022;2023-07-09T03:21:34;25.50;77.00
28837;DHT22;50669;50.982;11.022;2023-07-09T03:24:03;25.50;77.10
28837;DHT22;50669;50.982;11.022;2023-07-09T03:26:29;25.50;77.10
28837;DHT22;50669;50.982;11.022;2023-07-09T03:28:56;25.50;77.10
28837;DHT22;50669;50.982;11.022;2023-07-09T03:31:27;25.50;77.00
28837;DHT22;50669;50.982;11.022;2023-07-09T03:33:53;25.50;77.10
28837;DHT22;50669;50.982;11.022;2023-07-09T03:36:19;25.50;77.10
28837;DHT22;50669;50.982;11.022;2023-07-09T03:38:45;25.50;77.20
28837;DHT22;50669;50.982;11.022;2023-07-09T03:41:11;25.50;77.20
28837;DHT22;50669;50.982;11.022;2023-07-09T03:43:41;25.50;77.10
28837;DHT22;50669;50.982;11.022;2023-07-09T03:46:11;25.50;77.20
28837;DHT22;50669;50.982;11.022;2023-07-09T03:48:39;25.50;77.20
28837;DHT22;50669;50.982;11.022;2023-07-09T03:51:05;25.50;77.20
28837;DHT22;50669;50.982;11.022;2023-07-09T03:53:31;25.50;77.20
28837;DHT22;50669;50.982;11.022;2023-07-09T03:55:56;25.50;77.20
28837;DHT22;50669;50.982;11.022;2023-07-09T03:58:23;25.50;77.30
28837;DHT22;50669;50.982;11.022;2023-07-09T04:00:53;25.50;77.20
28837;DHT22;50669;50.982;11.022;2023-07-09T04:03:21;25.50;77.20
28837;DHT22;50669;50.982;11.022;2023-07-09T04:05:47;25.50;77.20
28837;DHT22;50669;50.982;11.022;2023-07-09T04:08:16;25.50;77.20
28837;DHT22;50669;50.982;11.022;2023-07-09T04:10:45;25.40;77.20
28837;DHT22;50669;50.982;11.022;2023-07-09T04:13:11;25.40;77.30
28837;DHT22;50669;50.982;11.022;2023-07-09T04:15:36;25.50;77.30
28837;DHT22;50669;50.982;11.022;2023-07-09T04:18:05;25.40;77.30
28837;DHT22;50669;50.982;11.022;2023-07-09T04:20:30;25.50;77.30
28837;DHT22;50669;50.982;11.022;2023-07-09T04:22:56;25.40;77.20
28837;DHT22;50669;50.982;11.022;2023-07-09T04:25:22;25.40;77.30
28837;DHT22;50669;50.982;11.022;2023-07-09T04:27:47;25.50;77.30
28837;DHT22;50669;50.982;11.022;2023-07-09T04:30:14;25.40;77.30
28837;DHT22;50669;50.982;11.022;2023-07-09T04:32:44;25.40;77.30
28837;DHT22;50669;50.982;11.022;2023-07-09T04:35:12;25.40;77.30
28837;DHT22;50669;50.982;11.022;2023-07-09T04:37:41;25.50;77.40
28837;DHT22;50669;50.982;11.022;2023-07-09T04:40:09;25.50;77.30
28837;DHT22;50669;50.982;11.022;2023-07-09T04:42:38;25.50;77.30
28837;DHT22;50669;50.982;11.022;2023-07-09T04:45:07;25.40;77.20
28837;DHT22;50669;50.982;11.022;2023-07-09T04:47:36;25.50;77.40
28837;DHT22;50669;50.982;11.022;2023-07-09T04:50:06;25.50;77.30
28837;DHT22;50669;50.982;11.022;2023-07-09T04:52:35;25.50;77.40
28837;DHT22;50669;50.982;11.022;2023-07-09T04:55:01;25.50;77.40
28837;DHT22;50669;50.982;11.022;2023-07-09T04:57:27;25.50;77.30
28837;DHT22;50669;50.982;11.022;2023-07-09T04:59:56;25.50;77.30
28837;DHT22;50669;50.982;11.022;2023-07-09T05:02:22;25.50;77.30
28837;DHT22;50669;50.982;11.022;2023-07-09T05:04:48;25.50;77.30
28837;DHT22;50669;50.982;11.022;2023-07-09T05:07:13;25.50;77.30
28837;DHT22;50669;50.982;11.022;2023-07-09T05:09:44;25.50;77.30
28837;DHT22;50669;50.982;11.022;2023-07-09T05:12:11;25.50;77.30
28837;DHT22;50669;50.982;11.022;2023-07-09T05:14:37;25.50;77.30
28837;DHT22;50669;50.982;11.022;2023-07-09T05:17:03;25.50;77.30
28837;DHT22;50669;50.982;11.022;2023-07-09T05:19:29;25.50;77.30
28837;DHT22;50669;50.982;11.022;2023-07-09T05:21:55;25.50;77.30
28837;DHT22;50669;50.982;11.022;2023-07-09T05:24:23;25.50;77.30
28837;DHT22;50669;50.982;11.022;2023-07-09T05:26:53;25.50;77.20
28837;DHT22;50669;50.982;11.022;2023-07-09T05:29:19;25.50;77.30
28837;DHT22;50669;50.982;11.022;2023-07-09T05:31:44;25.50;77.30
28837;DHT22;50669;50.982;11.022;2023-07-09T05:34:12;25.50;77.30
28837;DHT22;50669;50.982;11.022;2023-07-09T05:36:41;25.50;77.30
28837;DHT22;50669;50.982;11.022;2023-07-09T05:39:09;25.50;77.30
28837;DHT22;50669;50.982;11.022;2023-07-09T05:41:37;25.50;77.30
28837;DHT22;50669;50.982;11.022;2023-07-09T05:44:05;25.50;77.30
28837;DHT22;50669;50.982;11.022;2023-07-09T05:46:35;25.50;77.30
28837;DHT22;50669;50.982;11.022;2023-07-09T05:49:02;25.50;77.30
28837;DHT22;50669;50.982;11.022;2023-07-09T05:51:28;25.50;77.30
28837;DHT22;50669;50.982;11.022;2023-07-09T05:53:54;25.50;77.30
28837;DHT22;50669;50.982;11.022;2023-07-09T05:56:20;25.60;77.40
28837;DHT22;50669;50.982;11.022;2023-07-09T05:58:48;25.50;77.20
28837;DHT22;50669;50.982;11.022;2023-07-09T06:01:13;25.50;77.30
28837;DHT22;50669;50.982;11.022;2023-07-09T06:03:41;25.50;77.30
28837;DHT22;50669;50.982;11.022;2023-07-09T06:06:08;25.50;77.20
28837;DHT22;50669;50.982;11.022;2023-07-09T06:08:33;25.60;77.30
28837;DHT22;50669;50.982;11.022;2023-07-09T06:11:03;25.50;77.20
28837;DHT22;50669;50.982;11.022;2023-07-09T06:13:29;25.50;77.20
28837;DHT22;50669;50.982;11.022;2023-07-09T06:16:01;25.50;77.20
28837;DHT22;50669;50.982;11.022;2023-07-09T06:18:30;25.60;77.30
28837;DHT22;50669;50.982;11.022;2023-07-09T06:21:02;25.50;77.20
28837;DHT22;50669;50.982;11.022;2023-07-09T06:23:28;25.50;78.00
28837;DHT22;50669;50.982;11.022;2023-07-09T06:25:55;25.60;77.30
28837;DHT22;50669;50.982;11.022;2023-07-09T06:28:23;25.60;77.30
28837;DHT22;50669;50.982;11.022;2023-07-09T06:30:49;25.60;77.30
28837;DHT22;50669;50.982;11.022;2023-07-09T06:33:16;25.60;77.30
28837;DHT22;50669;50.982;11.022;2023-07-09T06:35:55;25.60;77.30
28837;DHT22;50669;50.982;11.022;2023-07-09T06:38:21;25.60;77.30
28837;DHT22;50669;50.982;11.022;2023-07-09T06:40:51;25.60;77.30
28837;DHT22;50669;50.982;11.022;2023-07-09T06:43:20;25.60;77.20
28837;DHT22;50669;50.982;11.022;2023-07-09T06:45:53;25.60;77.30
28837;DHT22;50669;50.982;11.022;2023-07-09T06:48:19;25.60;77.30
28837;DHT22;50669;50.982;11.022;2023-07-09T06:50:47;25.60;77.30
28837;DHT22;50669;50.982;11.022;2023-07-09T06:53:13;25.60;77.30
28837;DHT22;50669;50.982;11.022;2023-07-09T06:55:39;25.60;77.30
28837;DHT22;50669;50.982;11.022;2023-07-09T06:58:05;25.60;77.30
28837;DHT22;50669;50.982;11.022;2023-07-09T07:00:33;25.60;77.30
28837;DHT22;50669;50.982;11.022;2023-07-09T07:02:58;25.60;77.30
28837;DHT22;50669;50.982;11.022;2023-07-09T07:05:27;25.60;77.30
28837;DHT22;50669;50.982;11.022;2023-07-09T07:07:55;25.60;77.30
28837;DHT22;50669;50.982;11.022;2023-07-09T07:10:20;25.60;77.20
28837;DHT22;50669;50.982;11.022;2023-07-09T07:12:48;25.60;77.20
28837;DHT22;50669;50.982;11.022;2023-07-09T07:15:16;25.60;77.30
28837;DHT22;50669;50.982;11.022;2023-07-09T07:17:43;25.60;77.20
28837;DHT22;50669;50.982;11.022;2023-07-09T07:20:10;25.60;77.20
28837;DHT22;50669;50.982;11.022;2023-07-09T07:22:40;25.60;77.20
28837;DHT22;50669;50.982;11.022;2023-07-09T07:25:07;25.60;77.20
28837;DHT22;50669;50.982;11.022;2023-07-09T07:27:36;25.60;77.20
28837;DHT22;50669;50.982;11.022;2023-07-09T07:30:02;25.70;77.20
28837;DHT22;50669;50.982;11.022;2023-07-09T07:32:33;25.70;77.30
28837;DHT22;50669;50.982;11.022;2023-07-09T07:34:58;25.70;77.30
28837;DHT22;50669;50.982;11.022;2023-07-09T07:37:24;25.70;77.10
28837;DHT22;50669;50.982;11.022;2023-07-09T07:39:52;25.70;78.00
28837;DHT22;50669;50.982;11.022;2023-07-09T07:42:18;25.70;77.20
28837;DHT22;50669;50.982;11.022;2023-07-09T07:44:46;25.70;77.20
28837;DHT22;50669;50.982;11.022;2023-07-09T07:47:14;25.70;77.10
28837;DHT22;50669;50.982;11.022;2023-07-09T07:49:39;25.70;77.20
28837;DHT22;50669;50.982;11.022;2023-07-09T07:52:08;25.70;77.20
28837;DHT22;50669;50.982;11.022;2023-07-09T07:54:36;25.70;77.20
28837;DHT22;50669;50.982;11.022;2023-07-09T07:57:04;25.70;77.20
28837;DHT22;50669;50.982;11.022;2023-07-09T07:59:30;25.70;77.20
28837;DHT22;50669;50.982;11.022;2023-07-09T08:01:58;25.70;77.20
28837;DHT22;50669;50.982;11.022;2023-07-09T08:04:23;25.70;77.20
28837;DHT22;50669;50.982;11.022;2023-07-09T08:06:50;25.70;77.20
28837;DHT22;50669;50.982;11.022;2023-07-09T08:09:16;25.80;77.30
28837;DHT22;50669;50.982;11.022;2023-07-09T08:11:42;25.70;77.20
28837;DHT22;50669;50.982;11.022;2023-07-09T08:14:10;25.70;77.20
28837;DHT22;50669;50.982;11.022;2023-07-09T08:16:38;25.70;77.10
28837;DHT22;50669;50.982;11.022;2023-07-09T08:19:04;25.70;77.10
28837;DHT22;50669;50.982;11.022;2023-07-09T08:21:30;25.70;77.10
28837;DHT22;50669;50.982;11.022;2023-07-09T08:23:59;25.70;77.10
28837;DHT22;50669;50.982;11.022;2023-07-09T08:26:27;25.80;77.20
28837;DHT22;50669;50.982;11.022;2023-07-09T08:28:53;25.80;78.00
28837;DHT22;50669;50.982;11.022;2023-07-09T08:31:19;25.80;77.20
28837;DHT22;50669;50.982;11.022;2023-07-09T08:33:45;25.80;77.20
28837;DHT22;50669;50.982;11.022;2023-07-09T08:36:11;25.80;77.20
28837;DHT22;50669;50.982;11.022;2023-07-09T08:38:36;25.80;77.20
28837;DHT22;50669;50.982;11.022;2023-07-09T08:41:09;25.80;77.20
28837;DHT22;50669;50.982;11.022;2023-07-09T08:43:45;25.80;77.20
28837;DHT22;50669;50.982;11.022;2023-07-09T08:46:33;25.80;77.20
28837;DHT22;50669;50.982;11.022;2023-07-09T08:49:03;25.80;77.20
28837;DHT22;50669;50.982;11.022;2023-07-09T08:51:38;25.80;77.20
28837;DHT22;50669;50.982;11.022;2023-07-09T08:54:13;25.80;77.20
28837;DHT22;50669;50.982;11.022;2023-07-09T08:56:42;25.80;77.20
28837;DHT22;50669;50.982;11.022;2023-07-09T08:59:09;25.80;77.20
28837;DHT22;50669;50.982;11.022;2023-07-09T09:01:51;25.80;77.20
28837;DHT22;50669;50.982;11.022;2023-07-09T09:04:31;25.80;77.20
28837;DHT22;50669;50.982;11.022;2023-07-09T09:09:40;25.80;77.10
28837;DHT22;50669;50.982;11.022;2023-07-09T09:12:21;25.90;77.20
28837;DHT22;50669;50.982;11.022;2023-07-09T09:14:59;25.80;77.10
28837;DHT22;50669;50.982;11.022;2023-07-09T09:17:27;25.80;77.10
28837;DHT22;50669;50.982;11.022;2023-07-09T09:20:03;25.80;77.00
28837;DHT22;50669;50.982;11.022;2023-07-09T09:22:36;25.90;77.10
28837;DHT22;50669;50.982;11.022;2023-07-09T09:27:31;25.90;77.00
28837;DHT22;50669;50.982;11.022;2023-07-09T09:30:04;25.90;77.00
28837;DHT22;50669;50.982;11.022;2023-07-09T09:32:44;25.90;77.10
28837;DHT22;50669;50.982;11.022;2023-07-09T09:35:17;25.90;77.00
28837;DHT22;50669;50.982;11.022;2023-07-09T09:37:54;25.90;77.00
28837;DHT22;50669;50.982;11.022;2023-07-09T09:40:20;25.90;77.00
28837;DHT22;50669;50.982;11.022;2023-07-09T09:42:58;25.90;77.00
28837;DHT22;50669;50.982;11.022;2023-07-09T09:45:28;25.90;77.00
28837;DHT22;50669;50.982;11.022;2023-07-09T09:47:58;25.90;77.00
28837;DHT22;50669;50.982;11.022;2023-07-09T09:50:25;25.90;77.00
28837;DHT22;50669;50.982;11.022;2023-07-09T09:52:56;25.90;77.00
28837;DHT22;50669;50.982;11.022;2023-07-09T09:55:28;25.90;76.90
28837;DHT22;50669;50.982;11.022;2023-07-09T09:57:55;25.90;76.90
28837;DHT22;50669;50.982;11.022;2023-07-09T10:00:26;25.90;77.00
28837;DHT22;50669;50.982;11.022;2023-07-09T10:03:04;25.90;77.00
28837;DHT22;50669;50.982;11.022;2023-07-09T10:05:45;25.90;77.00
28837;DHT22;50669;50.982;11.022;2023-07-09T10:09:13;25.90;77.00
28837;DHT22;50669;50.982;11.022;2023-07-09T10:11:44;25.90;77.00
28837;DHT22;50669;50.982;11.022;2023-07-09T10:19:58;26.00;77.00
28837;DHT22;50669;50.982;11.022;2023-07-09T10:25:04;26.00;77.00
28837;DHT22;50669;50.982;11.022;2023-07-09T10:28:23;26.00;77.00
28837;DHT22;50669;50.982;11.022;2023-07-09T10:30:43;26.00;77.00
28837;DHT22;50669;50.982;11.022;2023-07-09T10:33:23;26.00;77.00
28837;DHT22;50669;50.982;11.022;2023-07-09T10:36:06;26.00;77.00
28837;DHT22;50669;50.982;11.022;2023-07-09T10:39:04;26.00;77.00
28837;DHT22;50669;50.982;11.022;2023-07-09T10:41:35;26.00;77.00
28837;DHT22;50669;50.982;11.022;2023-07-09T10:44:15;26.00;76.90
28837;DHT22;50669;50.982;11.022;2023-07-09T10:46:47;26.00;77.00
28837;DHT22;50669;50.982;11.022;2023-07-09T10:49:18;26.00;76.90
28837;DHT22;50669;50.982;11.022;2023-07-09T10:52:46;26.00;76.90
28837;DHT22;50669;50.982;11.022;2023-07-09T10:55:00;26.00;76.90
28837;DHT22;50669;50.982;11.022;2023-07-09T10:57:46;26.00;76.90
28837;DHT22;50669;50.982;11.022;2023-07-09T11:00:19;26.00;76.90
28837;DHT22;50669;50.982;11.022;2023-07-09T11:02:58;26.00;76.90
28837;DHT22;50669;50.982;11.022;2023-07-09T11:05:25;26.00;76.80
28837;DHT22;50669;50.982;11.022;2023-07-09T11:08:07;26.00;76.90
28837;DHT22;50669;50.982;11.022;2023-07-09T11:10:46;26.00;76.90
28837;DHT22;50669;50.982;11.022;2023-07-09T11:15:48;26.00;76.90
28837;DHT22;50669;50.982;11.022;2023-07-09T11:18:22;26.10;76.90
28837;DHT22;50669;50.982;11.022;2023-07-09T11:21:05;26.10;77.00
28837;DHT22;50669;50.982;11.022;2023-07-09T11:23:44;26.10;76.90
28837;DHT22;50669;50.982;11.022;2023-07-09T11:26:21;26.10;76.90
28837;DHT22;50669;50.982;11.022;2023-07-09T11:28:52;26.10;76.90
28837;DHT22;50669;50.982;11.022;2023-07-09T11:34:17;26.10;76.90
28837;DHT22;50669;50.982;11.022;2023-07-09T11:36:55;26.10;76.90
28837;DHT22;50669;50.982;11.022;2023-07-09T11:39:30;26.10;76.90
28837;DHT22;50669;50.982;11.022;2023-07-09T11:41:56;26.10;76.90
28837;DHT22;50669;50.982;11.022;2023-07-09T11:44:31;26.10;76.90
28837;DHT22;50669;50.982;11.022;2023-07-09T11:50:00;26.10;76.80
28837;DHT22;50669;50.982;11.022;2023-07-09T11:52:42;26.10;76.90
28837;DHT22;50669;50.982;11.022;2023-07-09T11:57:48;26.10;76.80
28837;DHT22;50669;50.982;11.022;2023-07-09T12:00:15;26.10;76.70
28837;DHT22;50669;50.982;11.022;2023-07-09T12:02:41;26.20;76.80
28837;DHT22;50669;50.982;11.022;2023-07-09T12:05:08;26.10;76.80
28837;DHT22;50669;50.982;11.022;2023-07-09T12:07:37;26.10;76.80
28837;DHT22;50669;50.982;11.022;2023-07-09T12:10:09;26.20;76.90
28837;DHT22;50669;50.982;11.022;2023-07-09T12:12:44;26.20;76.90
28837;DHT22;50669;50.982;11.022;2023-07-09T12:15:21;26.20;76.90
28837;DHT22;50669;50.982;11.022;2023-07-09T12:20:28;26.20;76.90
28837;DHT22;50669;50.982;11.022;2023-07-09T12:22:55;26.20;76.80
28837;DHT22;50669;50.982;11.022;2023-07-09T12:25:25;26.20;76.80
28837;DHT22;50669;50.982;11.022;2023-07-09T12:27:54;26.20;76.80
28837;DHT22;50669;50.982;11.022;2023-07-09T12:30:20;26.20;76.80
28837;DHT22;50669;50.982;11.022;2023-07-09T12:32:47;26.20;76.80
28837;DHT22;50669;50.982;11.022;2023-07-09T12:35:16;26.20;76.80
28837;DHT22;50669;50.982;11.022;2023-07-09T12:37:43;26.20;76.80
28837;DHT22;50669;50.982;11.022;2023-07-09T12:42:40;26.20;76.70
28837;DHT22;50669;50.982;11.022;2023-07-09T12:45:14;26.30;76.70
28837;DHT22;50669;50.982;11.022;2023-07-09T12:47:40;26.30;76.70
28837;DHT22;50669;50.982;11.022;2023-07-09T12:50:31;26.30;76.60
28837;DHT22;50669;50.982;11.022;2023-07-09T12:53:02;26.30;76.60
28837;DHT22;50669;50.982;11.022;2023-07-09T12:55:38;26.40;76.60
28837;DHT22;50669;50.982;11.022;2023-07-09T12:58:09;26.40;76.50
28837;DHT22;50669;50.982;11.022;2023-07-09T13:00:36;26.40;76.40
28837;DHT22;50669;50.982;11.022;2023-07-09T13:03:09;26.40;76.40
28837;DHT22;50669;50.982;11.022;2023-07-09T13:05:37;26.50;76.40
28837;DHT22;50669;50.982;11.022;2023-07-09T13:08:03;26.50;76.40
28837;DHT22;50669;50.982;11.022;2023-07-09T13:10:31;26.50;76.30
28837;DHT22;50669;50.982;11.022;2023-07-09T13:13:05;26.50;76.20
28837;DHT22;50669;50.982;11.022;2023-07-09T13:15:41;26.60;76.20
28837;DHT22;50669;50.982;11.022;2023-07-09T13:18:13;26.60;76.20
28837;DHT22;50669;50.982;11.022;2023-07-09T13:20:45;26.60;76.10
28837;DHT22;50669;50.982;11.022;2023-07-09T13:23:27;26.60;76.10
28837;DHT22;50669;50.982;11.022;2023-07-09T13:25:54;26.60;76.10
28837;DHT22;50669;50.982;11.022;2023-07-09T13:28:27;26.60;76.10
28837;DHT22;50669;50.982;11.022;2023-07-09T13:31:16;26.70;76.20
28837;DHT22;50669;50.982;11.022;2023-07-09T13:33:44;26.70;76.10
28837;DHT22;50669;50.982;11.022;2023-07-09T13:36:17;26.70;75.90
28837;DHT22;50669;50.982;11.022;2023-07-09T13:38:45;26.70;75.80
28837;DHT22;50669;50.982;11.022;2023-07-09T13:41:14;26.80;75.90
28837;DHT22;50669;50.982;11.022;2023-07-09T13:43:43;26.80;75.80
28837;DHT22;50669;50.982;11.022;2023-07-09T13:46:11;26.80;75.70
28837;DHT22;50669;50.982;11.022;2023-07-09T13:48:39;26.90;75.80
28837;DHT22;50669;50.982;11.022;2023-07-09T13:51:22;26.90;75.80
28837;DHT22;50669;50.982;11.022;2023-07-09T13:53:51;26.90;75.60
28837;DHT22;50669;50.982;11.022;2023-07-09T13:56:18;26.90;75.60
28837;DHT22;50669;50.982;11.022;2023-07-09T13:58:45;26.90;75.60
28837;DHT22;50669;50.982;11.022;2023-07-09T14:01:14;26.90;75.70
28837;DHT22;50669;50.982;11.022;2023-07-09T14:03:40;26.90;75.70
28837;DHT22;50669;50.982;11.022;2023-07-09T14:06:11;26.90;75.80
28837;DHT22;50669;50.982;11.022;2023-07-09T14:08:37;26.90;75.80
28837;DHT22;50669;50.982;11.022;2023-07-09T14:11:07;26.90;75.80
28837;DHT22;50669;50.982;11.022;2023-07-09T14:13:33;26.90;75.90
28837;DHT22;50669;50.982;11.022;2023-07-09T14:15:59;26.90;75.80
28837;DHT22;50669;50.982;11.022;2023-07-09T14:18:26;27.00;75.80
28837;DHT22;50669;50.982;11.022;2023-07-09T14:20:55;27.00;75.80
28837;DHT22;50669;50.982;11.022;2023-07-09T14:23:22;27.00;75.60
28837;DHT22;50669;50.982;11.022;2023-07-09T14:25:48;27.00;75.60
28837;DHT22;50669;50.982;11.022;2023-07-09T14:28:19;27.10;75.60
28837;DHT22;50669;50.982;11.022;2023-07-09T14:30:51;27.10;75.50
28837;DHT22;50669;50.982;11.022;2023-07-09T14:33:18;27.20;75.50
28837;DHT22;50669;50.982;11.022;2023-07-09T14:35:45;27.20;75.40
28837;DHT22;50669;50.982;11.022;2023-07-09T14:38:33;27.30;75.40
28837;DHT22;50669;50.982;11.022;2023-07-09T14:41:04;27.30;75.30
28837;DHT22;50669;50.982;11.022;2023-07-09T14:43:41;27.40;75.30
28837;DHT22;50669;50.982;11.022;2023-07-09T14:46:11;27.40;75.20
28837;DHT22;50669;50.982;11.022;2023-07-09T14:48:37;27.40;75.20
28837;DHT22;50669;50.982;11.022;2023-07-09T14:51:13;27.40;75.90
28837;DHT22;50669;50.982;11.022;2023-07-09T14:53:42;27.40;75.00
28837;DHT22;50669;50.982;11.022;2023-07-09T14:56:15;27.50;75.10
28837;DHT22;50669;50.982;11.022;2023-07-09T14:58:41;27.50;75.10
28837;DHT22;50669;50.982;11.022;2023-07-09T15:01:15;27.50;75.00
28837;DHT22;50669;50.982;11.022;2023-07-09T15:03:43;27.50;74.90
28837;DHT22;50669;50.982;11.022;2023-07-09T15:06:09;27.60;74.90
28837;DHT22;50669;50.982;11.022;2023-07-09T15:08:35;27.60;75.00
28837;DHT22;50669;50.982;11.022;2023-07-09T15:11:03;27.60;74.90
28837;DHT22;50669;50.982;11.022;2023-07-09T15:13:34;27.60;75.00
28837;DHT22;50669;50.982;11.022;2023-07-09T15:16:02;27.70;75.00
28837;DHT22;50669;50.982;11.022;2023-07-09T15:18:28;27.60;74.90
28837;DHT22;50669;50.982;11.022;2023-07-09T15:20:58;27.60;74.90
28837;DHT22;50669;50.982;11.022;2023-07-09T15:23:28;27.60;75.00
28837;DHT22;50669;50.982;11.022;2023-07-09T15:25:55;27.60;75.10
28837;DHT22;50669;50.982;11.022;2023-07-09T15:28:24;27.50;75.20
28837;DHT22;50669;50.982;11.022;2023-07-09T15:30:50;27.50;75.20
28837;DHT22;50669;50.982;11.022;2023-07-09T15:33:19;27.40;75.30
28837;DHT22;50669;50.982;11.022;2023-07-09T15:35:47;27.40;75.40
28837;DHT22;50669;50.982;11.022;2023-07-09T15:38:20;27.40;75.70
28837;DHT22;50669;50.982;11.022;2023-07-09T15:40:47;27.30;75.50
28837;DHT22;50669;50.982;11.022;2023-07-09T15:43:17;27.30;75.60
28837;DHT22;50669;50.982;11.022;2023-07-09T15:45:49;27.30;75.70
28837;DHT22;50669;50.982;11.022;2023-07-09T15:50:59;27.30;75.80
28837;DHT22;50669;50.982;11.022;2023-07-09T15:53:25;27.30;75.80
28837;DHT22;50669;50.982;11.022;2023-07-09T15:55:54;27.20;75.80
28837;DHT22;50669;50.982;11.022;2023-07-09T15:58:26;27.30;75.90
28837;DHT22;50669;50.982;11.022;2023-07-09T16:00:52;27.20;75.80
28837;DHT22;50669;50.982;11.022;2023-07-09T16:03:18;27.30;75.90
28837;DHT22;50669;50.982;11.022;2023-07-09T16:05:43;27.20;75.90